createdAt,value
2023-02-20T00:00:17.690Z,10.07
2023-02-20T00:00:50.187Z,8.95
2023-02-20T00:01:23.118Z,8.23
2023-02-20T00:01:56.682Z,7.93
2023-02-20T00:02:30.897Z,6.70
2023-02-20T00:03:03.572Z,8.15
2023-02-20T00:03:36.427Z,8.65
2023-02-20T00:04:09.202Z,8.10
2023-02-20T00:04:41.662Z,8.07
2023-02-20T00:05:14.028Z,7.97
2023-02-20T00:05:47.179Z,9.30
2023-02-20T00:06:19.459Z,8.02
2023-02-20T00:06:51.818Z,10.35
2023-02-20T00:07:24.109Z,8.52
2023-02-20T00:07:56.686Z,9.15
2023-02-20T00:08:28.999Z,8.02
2023-02-20T00:09:01.465Z,7.93
2023-02-20T00:09:33.825Z,8.50
2023-02-20T00:10:06.501Z,11.13
2023-02-20T00:10:39.056Z,8.67
2023-02-20T00:11:11.600Z,6.97
2023-02-20T00:11:44.145Z,6.53
2023-02-20T00:12:16.417Z,7.07
2023-02-20T00:12:48.702Z,7.20
2023-02-20T00:13:21.082Z,7.95
2023-02-20T00:13:53.542Z,7.18
2023-02-20T00:14:26.226Z,7.78
2023-02-20T00:14:58.672Z,7.68
2023-02-20T00:15:31.021Z,7.50
2023-02-20T00:16:03.569Z,6.60
2023-02-20T00:16:36.035Z,6.20
2023-02-20T00:17:08.324Z,7.40
2023-02-20T00:17:42.094Z,9.75
2023-02-20T00:18:14.653Z,7.88
2023-02-20T00:18:47.012Z,6.88
2023-02-20T00:19:19.356Z,7.75
2023-02-20T00:19:51.760Z,6.82
2023-02-20T00:20:24.916Z,7.13
2023-02-20T00:20:57.231Z,7.07
2023-02-20T00:21:29.517Z,9.07
2023-02-20T00:22:01.789Z,8.38
2023-02-20T00:22:34.200Z,8.25
2023-02-20T00:23:06.680Z,7.13
2023-02-20T00:23:39.389Z,8.68
2023-02-20T00:24:11.690Z,6.72
2023-02-20T00:24:44.155Z,7.40
2023-02-20T00:25:17.411Z,7.47
2023-02-20T00:25:49.993Z,6.75
2023-02-20T00:26:22.261Z,6.78
2023-02-20T00:26:54.668Z,6.37
2023-02-20T00:27:26.973Z,6.50
2023-02-20T00:27:59.273Z,9.63
2023-02-20T00:28:31.647Z,7.97
2023-02-20T00:29:05.940Z,7.95
2023-02-20T00:29:38.468Z,7.22
2023-02-20T00:30:13.503Z,7.03
2023-02-20T00:30:45.915Z,7.10
2023-02-20T00:31:20.194Z,6.78
2023-02-20T00:31:56.638Z,7.82
2023-02-20T00:32:30.288Z,7.57
2023-02-20T00:33:02.971Z,10.07
2023-02-20T00:33:36.821Z,8.80
2023-02-20T00:34:09.233Z,8.30
2023-02-20T00:34:42.052Z,7.88
2023-02-20T00:35:14.622Z,9.18
2023-02-20T00:35:47.018Z,9.32
2023-02-20T00:36:19.872Z,9.82
2023-02-20T00:36:52.266Z,7.50
2023-02-20T00:37:24.760Z,9.40
2023-02-20T00:37:58.647Z,10.47
2023-02-20T00:38:31.053Z,8.95
2023-02-20T00:39:03.516Z,8.90
2023-02-20T00:39:35.844Z,8.65
2023-02-20T00:40:08.790Z,7.85
2023-02-20T00:40:41.173Z,7.32
2023-02-20T00:41:14.703Z,8.18
2023-02-20T00:41:47.031Z,9.05
2023-02-20T00:42:20.608Z,7.28
2023-02-20T00:42:53.389Z,9.95
2023-02-20T00:43:26.292Z,9.60
2023-02-20T00:44:00.442Z,6.93
2023-02-20T00:44:32.723Z,6.72
2023-02-20T00:45:05.778Z,8.15
2023-02-20T00:45:38.116Z,6.70
2023-02-20T00:46:14.963Z,9.13
2023-02-20T00:46:48.180Z,8.32
2023-02-20T00:47:20.905Z,7.43
2023-02-20T00:47:53.277Z,8.00
2023-02-20T00:48:25.681Z,9.93
2023-02-20T00:49:18.049Z,9.57
2023-02-20T00:49:53.522Z,8.20
2023-02-20T00:50:28.774Z,8.18
2023-02-20T00:51:01.069Z,8.65
2023-02-20T00:51:33.795Z,9.90
2023-02-20T00:52:06.302Z,7.57
2023-02-20T00:52:40.807Z,8.40
2023-02-20T00:53:13.301Z,7.80
2023-02-20T00:53:45.629Z,9.10
2023-02-20T00:54:18.186Z,10.27
2023-02-20T00:54:50.677Z,11.47
2023-02-20T00:55:23.885Z,9.75
2023-02-20T00:55:56.236Z,11.80
2023-02-20T00:56:28.938Z,11.13
2023-02-20T00:57:02.335Z,11.00
2023-02-20T00:57:34.884Z,10.73
2023-02-20T00:58:07.171Z,7.63
2023-02-20T00:58:39.515Z,8.73
2023-02-20T00:59:11.836Z,9.20
2023-02-20T00:59:44.242Z,8.02
2023-02-20T01:00:22.141Z,7.70
2023-02-20T01:00:54.618Z,8.18
2023-02-20T01:01:28.486Z,6.80
2023-02-20T01:02:00.895Z,7.85
2023-02-20T01:02:33.378Z,9.15
2023-02-20T01:03:06.153Z,8.75
2023-02-20T01:03:38.504Z,7.75
2023-02-20T01:04:10.889Z,9.18
2023-02-20T01:04:43.475Z,7.78
2023-02-20T01:05:15.991Z,8.35
2023-02-20T01:05:48.467Z,9.50
2023-02-20T01:06:21.012Z,8.68
2023-02-20T01:06:53.485Z,8.82
2023-02-20T01:07:25.987Z,8.77
2023-02-20T01:07:58.479Z,8.30
2023-02-20T01:08:32.062Z,8.38
2023-02-20T01:09:04.344Z,8.65
2023-02-20T01:09:36.613Z,6.70
2023-02-20T01:10:09.937Z,8.77
2023-02-20T01:10:42.485Z,7.28
2023-02-20T01:11:16.593Z,6.80
2023-02-20T01:11:51.927Z,7.75
2023-02-20T01:12:24.309Z,9.20
2023-02-20T01:12:57.010Z,9.00
2023-02-20T01:13:29.343Z,7.30
2023-02-20T01:14:01.999Z,7.85
2023-02-20T01:14:35.970Z,8.20
2023-02-20T01:15:09.150Z,9.02
2023-02-20T01:15:41.723Z,6.75
2023-02-20T01:16:14.837Z,8.10
2023-02-20T01:16:51.438Z,7.60
2023-02-20T01:17:24.150Z,7.70
2023-02-20T01:17:56.542Z,9.35
2023-02-20T01:18:29.962Z,7.80
2023-02-20T01:19:02.510Z,8.98
2023-02-20T01:19:34.849Z,8.57
2023-02-20T01:20:08.290Z,7.93
2023-02-20T01:20:40.579Z,6.15
2023-02-20T01:21:12.877Z,7.20
2023-02-20T01:21:45.318Z,7.55
2023-02-20T01:22:17.616Z,7.40
2023-02-20T01:22:50.117Z,7.78
2023-02-20T01:23:22.491Z,7.13
2023-02-20T01:23:54.930Z,8.77
2023-02-20T01:24:27.259Z,7.00
2023-02-20T01:24:59.610Z,7.32
2023-02-20T01:25:32.376Z,7.28
2023-02-20T01:26:04.735Z,7.20
2023-02-20T01:26:39.195Z,7.30
2023-02-20T01:27:12.778Z,8.40
2023-02-20T01:27:45.291Z,9.07
2023-02-20T01:28:17.801Z,8.20
2023-02-20T01:28:50.112Z,7.97
2023-02-20T01:29:22.570Z,8.85
2023-02-20T01:29:55.204Z,8.90
2023-02-20T01:30:27.716Z,7.75
2023-02-20T01:31:00.162Z,8.20
2023-02-20T01:31:32.707Z,9.35
2023-02-20T01:32:05.361Z,10.02
2023-02-20T01:32:38.036Z,9.25
2023-02-20T01:33:10.384Z,8.87
2023-02-20T01:33:43.357Z,7.00
2023-02-20T01:34:16.911Z,8.30
2023-02-20T01:34:49.610Z,8.68
2023-02-20T01:35:22.051Z,10.30
2023-02-20T01:35:54.370Z,7.22
2023-02-20T01:36:30.194Z,9.18
2023-02-20T01:37:02.502Z,7.78
2023-02-20T01:37:35.012Z,7.00
2023-02-20T01:38:07.629Z,6.80
2023-02-20T01:38:41.522Z,8.57
2023-02-20T01:39:13.868Z,7.20
2023-02-20T01:39:47.580Z,6.93
2023-02-20T01:40:24.504Z,8.88
2023-02-20T01:40:56.903Z,9.45
2023-02-20T01:41:29.192Z,8.27
2023-02-20T01:42:02.577Z,8.50
2023-02-20T01:42:35.289Z,10.98
2023-02-20T01:43:07.684Z,8.77
2023-02-20T01:43:40.179Z,9.20
2023-02-20T01:44:19.693Z,6.87
2023-02-20T01:44:52.200Z,8.18
2023-02-20T01:45:24.856Z,6.97
2023-02-20T01:46:17.082Z,7.88
2023-02-20T01:46:52.630Z,8.55
2023-02-20T01:47:26.026Z,8.15
2023-02-20T01:47:58.536Z,11.85
2023-02-20T01:48:30.865Z,11.70
2023-02-20T01:49:07.114Z,12.98
2023-02-20T01:49:41.149Z,11.68
2023-02-20T01:50:14.181Z,13.27
2023-02-20T01:50:46.956Z,12.02
2023-02-20T01:51:19.920Z,13.80
2023-02-20T01:51:55.915Z,12.48
2023-02-20T01:52:30.303Z,13.82
2023-02-20T01:53:04.536Z,14.93
2023-02-20T01:53:36.926Z,18.20
2023-02-20T01:54:11.475Z,17.27
2023-02-20T01:54:45.529Z,17.30
2023-02-20T01:55:23.685Z,22.83
2023-02-20T01:55:58.312Z,17.90
2023-02-20T01:56:30.787Z,17.67
2023-02-20T01:57:04.745Z,16.25
2023-02-20T01:57:39.726Z,17.00
2023-02-20T01:58:17.786Z,17.15
2023-02-20T01:58:50.534Z,19.00
2023-02-20T01:59:24.408Z,18.25
2023-02-20T02:00:00.668Z,20.67
2023-02-20T02:00:33.532Z,18.00
2023-02-20T02:01:06.478Z,19.77
2023-02-20T02:01:39.220Z,18.00
2023-02-20T02:02:11.995Z,16.75
2023-02-20T02:02:51.447Z,17.02
2023-02-20T02:03:26.035Z,14.45
2023-02-20T02:04:00.744Z,14.77
2023-02-20T02:04:34.494Z,15.65
2023-02-20T02:05:08.360Z,15.10
2023-02-20T02:05:42.116Z,16.60
2023-02-20T02:06:16.183Z,16.60
2023-02-20T02:06:49.996Z,16.58
2023-02-20T02:07:22.473Z,15.30
2023-02-20T02:07:55.637Z,15.90
2023-02-20T02:08:29.081Z,13.80
2023-02-20T02:09:06.405Z,13.90
2023-02-20T02:09:38.677Z,16.08
2023-02-20T02:10:13.681Z,18.25
2023-02-20T02:10:51.914Z,13.95
2023-02-20T02:11:24.347Z,16.55
2023-02-20T02:11:56.660Z,14.35
2023-02-20T02:12:29.495Z,12.55
2023-02-20T02:13:02.494Z,12.27
2023-02-20T02:13:36.404Z,13.88
2023-02-20T02:14:09.005Z,14.75
2023-02-20T02:14:41.288Z,17.90
2023-02-20T02:15:20.442Z,12.48
2023-02-20T02:15:53.461Z,12.15
2023-02-20T02:16:37.883Z,13.00
2023-02-20T02:17:25.063Z,12.77
2023-02-20T02:18:03.018Z,13.82
2023-02-20T02:18:58.756Z,12.73
2023-02-20T02:19:39.999Z,12.63
2023-02-20T02:20:24.624Z,12.57
2023-02-20T02:20:56.953Z,15.13
2023-02-20T02:21:36.337Z,13.00
2023-02-20T02:22:09.009Z,13.60
2023-02-20T02:22:41.355Z,12.77
2023-02-20T02:23:45.648Z,12.75
2023-02-20T02:24:21.192Z,9.80
2023-02-20T02:24:59.152Z,11.45
2023-02-20T02:25:38.414Z,10.80
2023-02-20T02:26:16.938Z,10.07
2023-02-20T02:27:16.686Z,8.90
2023-02-20T02:27:51.840Z,10.38
2023-02-20T02:28:35.997Z,9.23
2023-02-20T02:29:27.232Z,10.38
2023-02-20T02:29:59.547Z,9.68
2023-02-20T02:30:44.634Z,8.95
2023-02-20T02:31:26.073Z,8.38
2023-02-20T02:32:14.098Z,8.45
2023-02-20T02:32:52.630Z,9.82
2023-02-20T02:33:45.153Z,10.53
2023-02-20T02:34:29.881Z,9.52
2023-02-20T02:35:20.980Z,9.50
2023-02-20T02:35:56.189Z,7.95
2023-02-20T02:36:28.450Z,7.95
2023-02-20T02:37:00.906Z,11.40
2023-02-20T02:37:59.421Z,8.18
2023-02-20T02:38:44.263Z,9.93
2023-02-20T02:39:24.456Z,9.15
2023-02-20T02:40:04.566Z,9.20
2023-02-20T02:40:37.470Z,9.23
2023-02-20T02:41:33.089Z,10.30
2023-02-20T02:42:06.563Z,10.27
2023-02-20T02:42:46.344Z,9.95
2023-02-20T02:43:24.196Z,9.52
2023-02-20T02:44:00.659Z,8.63
2023-02-20T02:44:32.903Z,8.98
2023-02-20T02:45:28.317Z,9.65
2023-02-20T02:46:03.184Z,8.52
2023-02-20T02:46:38.551Z,9.95
2023-02-20T02:47:13.480Z,8.60
2023-02-20T02:48:06.753Z,9.10
2023-02-20T02:48:51.654Z,8.75
2023-02-20T02:49:34.394Z,9.27
2023-02-20T02:50:23.537Z,8.00
2023-02-20T02:50:59.396Z,8.93
2023-02-20T02:51:35.108Z,7.82
2023-02-20T02:52:08.537Z,8.38
2023-02-20T02:52:49.345Z,8.43
2023-02-20T02:53:21.763Z,7.38
2023-02-20T02:54:08.890Z,9.00
2023-02-20T02:54:41.237Z,6.55
2023-02-20T02:55:14.345Z,8.60
2023-02-20T02:55:46.774Z,8.80
2023-02-20T02:56:23.745Z,7.97
2023-02-20T02:57:14.492Z,7.35
2023-02-20T02:57:47.030Z,7.78
2023-02-20T02:58:20.049Z,8.95
2023-02-20T02:58:54.900Z,8.77
2023-02-20T02:59:29.441Z,8.57
2023-02-20T03:00:05.686Z,9.37
2023-02-20T03:00:44.180Z,8.20
2023-02-20T03:01:18.242Z,8.25
2023-02-20T03:01:58.426Z,9.43
2023-02-20T03:02:38.500Z,8.20
2023-02-20T03:03:10.808Z,8.73
2023-02-20T03:03:44.162Z,7.15
2023-02-20T03:04:23.576Z,6.78
2023-02-20T03:04:57.032Z,9.73
2023-02-20T03:05:40.772Z,7.78
2023-02-20T03:06:18.556Z,7.23
2023-02-20T03:06:53.163Z,7.75
2023-02-20T03:07:26.540Z,7.57
2023-02-20T03:07:59.046Z,7.28
2023-02-20T03:08:37.169Z,8.25
2023-02-20T03:09:13.524Z,8.10
2023-02-20T03:09:58.358Z,8.23
2023-02-20T03:10:33.401Z,7.00
2023-02-20T03:11:13.244Z,6.57
2023-02-20T03:11:47.391Z,8.88
2023-02-20T03:12:20.558Z,7.23
2023-02-20T03:12:54.790Z,7.40
2023-02-20T03:13:47.652Z,7.38
2023-02-20T03:14:41.942Z,7.68
2023-02-20T03:15:34.073Z,6.88
2023-02-20T03:16:08.624Z,7.80
2023-02-20T03:16:59.465Z,8.75
2023-02-20T03:17:43.282Z,9.35
2023-02-20T03:18:32.340Z,7.53
2023-02-20T03:19:07.694Z,8.13
2023-02-20T03:19:44.657Z,9.07
2023-02-20T03:20:18.680Z,9.90
2023-02-20T03:21:03.249Z,8.73
2023-02-20T03:21:36.897Z,7.13
2023-02-20T03:22:13.677Z,7.45
2023-02-20T03:22:54.694Z,7.43
2023-02-20T03:23:32.285Z,6.90
2023-02-20T03:24:05.291Z,7.65
2023-02-20T03:24:55.553Z,8.45
2023-02-20T03:25:38.803Z,10.85
2023-02-20T03:26:18.990Z,8.80
2023-02-20T03:26:56.450Z,8.05
2023-02-20T03:27:39.207Z,8.95
2023-02-20T03:28:18.464Z,6.22
2023-02-20T03:28:57.331Z,8.23
2023-02-20T03:29:34.657Z,8.27
2023-02-20T03:30:09.468Z,8.35
2023-02-20T03:30:45.103Z,11.48
2023-02-20T03:31:28.105Z,9.30
2023-02-20T03:32:25.637Z,8.80
2023-02-20T03:33:19.202Z,6.60
2023-02-20T03:34:13.619Z,5.53
2023-02-20T03:35:05.922Z,8.27
2023-02-20T03:35:59.131Z,8.88
2023-02-20T03:37:10.411Z,6.65
2023-02-20T03:38:03.987Z,7.20
2023-02-20T03:38:56.864Z,7.65
2023-02-20T03:39:50.790Z,7.53
2023-02-20T03:40:42.741Z,7.13
2023-02-20T03:41:34.538Z,8.75
2023-02-20T03:42:29.117Z,6.50
2023-02-20T03:43:28.163Z,7.32
2023-02-20T03:44:05.799Z,7.95
2023-02-20T03:44:38.975Z,8.20
2023-02-20T03:45:12.960Z,7.65
2023-02-20T03:45:45.893Z,7.00
2023-02-20T03:46:23.159Z,7.20
2023-02-20T03:46:57.794Z,6.65
2023-02-20T03:47:31.810Z,7.72
2023-02-20T03:48:06.773Z,7.45
2023-02-20T03:48:48.463Z,6.77
2023-02-20T03:49:23.074Z,7.45
2023-02-20T03:49:56.548Z,7.00
2023-02-20T03:50:29.052Z,8.05
2023-02-20T03:51:22.277Z,8.57
2023-02-20T03:52:06.778Z,8.00
2023-02-20T03:52:42.984Z,7.90
2023-02-20T03:53:15.944Z,7.15
2023-02-20T03:53:48.792Z,8.35
2023-02-20T03:54:21.271Z,6.00
2023-02-20T03:54:54.631Z,6.60
2023-02-20T03:55:27.237Z,6.35
2023-02-20T03:56:02.703Z,6.78
2023-02-20T03:56:38.920Z,7.32
2023-02-20T03:57:27.633Z,6.47
2023-02-20T03:58:03.329Z,6.80
2023-02-20T03:58:40.995Z,7.55
2023-02-20T03:59:19.045Z,7.97
2023-02-20T03:59:56.159Z,6.88
2023-02-20T04:00:31.055Z,7.63
2023-02-20T04:01:06.231Z,7.53
2023-02-20T04:01:40.056Z,6.95
2023-02-20T04:02:23.784Z,6.20
2023-02-20T04:02:58.352Z,6.22
2023-02-20T04:03:37.524Z,8.18
2023-02-20T04:04:13.003Z,6.32
2023-02-20T04:04:49.037Z,6.13
2023-02-20T04:05:23.116Z,6.20
2023-02-20T04:05:57.876Z,7.00
2023-02-20T04:06:37.335Z,7.30
2023-02-20T04:07:12.847Z,9.83
2023-02-20T04:07:55.361Z,11.88
2023-02-20T04:08:36.052Z,7.28
2023-02-20T04:09:14.774Z,10.23
2023-02-20T04:09:47.952Z,8.52
2023-02-20T04:10:22.972Z,9.02
2023-02-20T04:11:00.266Z,7.30
2023-02-20T04:11:36.370Z,7.35
2023-02-20T04:12:15.650Z,7.47
2023-02-20T04:12:49.785Z,10.32
2023-02-20T04:13:23.071Z,7.43
2023-02-20T04:13:56.822Z,7.35
2023-02-20T04:14:30.088Z,9.57
2023-02-20T04:15:05.210Z,7.90
2023-02-20T04:15:38.131Z,8.80
2023-02-20T04:16:12.133Z,7.95
2023-02-20T04:16:51.767Z,8.25
2023-02-20T04:17:30.328Z,8.88
2023-02-20T04:18:14.396Z,7.25
2023-02-20T04:18:48.227Z,8.60
2023-02-20T04:19:21.058Z,12.03
2023-02-20T04:19:55.513Z,13.68
2023-02-20T04:20:27.994Z,9.88
2023-02-20T04:21:13.588Z,9.73
2023-02-20T04:21:49.171Z,8.20
2023-02-20T04:22:24.992Z,7.32
2023-02-20T04:23:00.981Z,8.60
2023-02-20T04:23:36.918Z,8.20
2023-02-20T04:24:13.047Z,8.73
2023-02-20T04:24:50.869Z,9.48
2023-02-20T04:25:31.539Z,9.33
2023-02-20T04:26:03.935Z,8.45
2023-02-20T04:26:39.327Z,8.05
2023-02-20T04:27:12.833Z,9.32
2023-02-20T04:27:52.061Z,8.00
2023-02-20T04:28:25.192Z,6.53
2023-02-20T04:29:03.013Z,6.38
2023-02-20T04:29:35.503Z,8.57
2023-02-20T04:30:08.118Z,8.27
2023-02-20T04:30:40.970Z,8.07
2023-02-20T04:31:14.637Z,8.30
2023-02-20T04:31:47.186Z,9.32
2023-02-20T04:32:20.527Z,7.93
2023-02-20T04:32:53.031Z,8.73
2023-02-20T04:33:25.627Z,8.85
2023-02-20T04:34:02.260Z,8.10
2023-02-20T04:34:35.157Z,8.50
2023-02-20T04:35:12.018Z,8.00
2023-02-20T04:35:44.343Z,11.45
2023-02-20T04:36:17.072Z,9.15
2023-02-20T04:36:50.257Z,7.57
2023-02-20T04:37:22.757Z,9.70
2023-02-20T04:37:59.411Z,8.43
2023-02-20T04:38:31.842Z,8.30
2023-02-20T04:39:05.422Z,9.70
2023-02-20T04:39:39.048Z,8.25
2023-02-20T04:40:13.865Z,10.77
2023-02-20T04:40:46.321Z,12.10
2023-02-20T04:41:19.302Z,11.18
2023-02-20T04:41:51.623Z,10.85
2023-02-20T04:42:24.003Z,12.43
2023-02-20T04:42:56.590Z,13.73
2023-02-20T04:43:29.485Z,15.38
2023-02-20T04:44:20.645Z,17.48
2023-02-20T04:44:55.072Z,17.08
2023-02-20T04:45:27.497Z,18.00
2023-02-20T04:46:00.328Z,16.70
2023-02-20T04:46:33.291Z,14.02
2023-02-20T04:47:11.725Z,15.63
2023-02-20T04:47:44.731Z,15.48
2023-02-20T04:48:17.083Z,13.77
2023-02-20T04:48:49.356Z,11.95
2023-02-20T04:49:21.845Z,14.57
2023-02-20T04:49:58.342Z,15.10
2023-02-20T04:50:32.412Z,10.93
2023-02-20T04:51:04.930Z,13.85
2023-02-20T04:51:38.704Z,12.57
2023-02-20T04:52:11.206Z,11.77
2023-02-20T04:52:44.573Z,11.02
2023-02-20T04:53:16.882Z,11.30
2023-02-20T04:53:49.611Z,10.13
2023-02-20T04:54:22.027Z,9.05
2023-02-20T04:54:54.722Z,9.25
2023-02-20T04:55:28.250Z,9.05
2023-02-20T04:56:03.222Z,8.43
2023-02-20T04:56:37.465Z,11.82
2023-02-20T04:57:10.408Z,9.13
2023-02-20T04:57:43.112Z,8.52
2023-02-20T04:58:15.488Z,10.27
2023-02-20T04:58:57.678Z,8.65
2023-02-20T04:59:29.978Z,7.57
2023-02-20T05:00:03.175Z,10.77
2023-02-20T05:00:38.216Z,10.20
2023-02-20T05:01:11.093Z,13.43
2023-02-20T05:01:48.186Z,11.40
2023-02-20T05:02:20.663Z,15.48
2023-02-20T05:02:54.412Z,12.43
2023-02-20T05:03:26.689Z,12.98
2023-02-20T05:03:59.076Z,11.85
2023-02-20T05:04:31.426Z,12.07
2023-02-20T05:05:03.834Z,10.77
2023-02-20T05:05:36.202Z,10.10
2023-02-20T05:06:08.519Z,8.30
2023-02-20T05:06:45.413Z,10.15
2023-02-20T05:07:18.398Z,10.60
2023-02-20T05:07:54.297Z,9.20
2023-02-20T05:08:26.711Z,9.52
2023-02-20T05:08:59.442Z,7.93
2023-02-20T05:09:32.386Z,9.02
2023-02-20T05:10:04.792Z,9.15
2023-02-20T05:10:37.168Z,9.60
2023-02-20T05:11:09.520Z,9.40
2023-02-20T05:11:42.002Z,8.27
2023-02-20T05:12:14.412Z,13.20
2023-02-20T05:12:46.908Z,8.93
2023-02-20T05:13:19.210Z,9.55
2023-02-20T05:13:51.935Z,10.35
2023-02-20T05:14:24.210Z,11.20
2023-02-20T05:14:56.591Z,8.95
2023-02-20T05:15:29.853Z,8.93
2023-02-20T05:16:02.176Z,7.70
2023-02-20T05:16:34.563Z,9.35
2023-02-20T05:17:06.889Z,7.50
2023-02-20T05:17:39.273Z,8.98
2023-02-20T05:18:11.819Z,7.63
2023-02-20T05:18:44.755Z,8.60
2023-02-20T05:19:17.492Z,6.70
2023-02-20T05:19:50.131Z,7.57
2023-02-20T05:20:42.513Z,6.57
2023-02-20T05:21:33.385Z,6.85
2023-02-20T05:22:22.964Z,6.03
2023-02-20T05:22:55.259Z,7.25
2023-02-20T05:23:27.525Z,5.95
2023-02-20T05:23:59.849Z,7.80
2023-02-20T05:24:32.543Z,8.63
2023-02-20T05:25:05.288Z,6.15
2023-02-20T05:25:37.674Z,8.18
2023-02-20T05:26:14.501Z,6.82
2023-02-20T05:26:47.547Z,7.75
2023-02-20T05:27:21.985Z,7.25
2023-02-20T05:27:54.274Z,8.53
2023-02-20T05:28:26.951Z,7.32
2023-02-20T05:28:59.208Z,9.02
2023-02-20T05:29:31.733Z,7.60
2023-02-20T05:30:04.292Z,6.90
2023-02-20T05:30:36.648Z,9.50
2023-02-20T05:31:09.116Z,8.27
2023-02-20T05:31:41.728Z,8.80
2023-02-20T05:32:15.702Z,9.75
2023-02-20T05:32:47.965Z,7.13
2023-02-20T05:33:20.391Z,8.73
2023-02-20T05:33:52.733Z,7.07
2023-02-20T05:34:26.026Z,9.15
2023-02-20T05:34:58.717Z,8.65
2023-02-20T05:35:31.138Z,11.50
2023-02-20T05:36:03.853Z,10.75
2023-02-20T05:36:36.495Z,8.75
2023-02-20T05:37:08.817Z,9.55
2023-02-20T05:37:41.306Z,9.55
2023-02-20T05:38:17.357Z,10.68
2023-02-20T05:38:49.703Z,9.17
2023-02-20T05:39:22.179Z,8.27
2023-02-20T05:39:54.905Z,9.60
2023-02-20T05:40:27.653Z,8.93
2023-02-20T05:40:59.957Z,9.77
2023-02-20T05:41:32.712Z,8.15
2023-02-20T05:42:08.676Z,8.15
2023-02-20T05:42:42.233Z,10.30
2023-02-20T05:43:16.326Z,7.68
2023-02-20T05:43:48.720Z,7.82
2023-02-20T05:44:21.082Z,8.17
2023-02-20T05:44:53.467Z,8.30
2023-02-20T05:45:25.736Z,9.23
2023-02-20T05:45:58.129Z,8.95
2023-02-20T05:46:30.623Z,7.20
2023-02-20T05:47:03.402Z,7.72
2023-02-20T05:47:37.917Z,9.82
2023-02-20T05:48:12.106Z,8.30
2023-02-20T05:48:44.815Z,6.65
2023-02-20T05:49:17.728Z,7.18
2023-02-20T05:49:50.019Z,6.83
2023-02-20T05:50:22.450Z,7.70
2023-02-20T05:50:55.023Z,9.00
2023-02-20T05:51:28.466Z,11.77
2023-02-20T05:52:01.345Z,7.13
2023-02-20T05:52:33.685Z,8.90
2023-02-20T05:53:06.402Z,8.05
2023-02-20T05:53:38.689Z,8.68
2023-02-20T05:54:11.051Z,8.18
2023-02-20T05:54:45.973Z,14.95
2023-02-20T05:55:18.344Z,10.23
2023-02-20T05:55:50.780Z,8.43
2023-02-20T05:56:23.301Z,7.95
2023-02-20T05:56:55.728Z,7.05
2023-02-20T05:57:28.799Z,7.95
2023-02-20T05:58:01.089Z,9.88
2023-02-20T05:58:33.473Z,8.55
2023-02-20T05:59:05.747Z,7.53
2023-02-20T05:59:38.480Z,8.30
2023-02-20T06:00:11.146Z,7.38
2023-02-20T06:00:46.234Z,7.30
2023-02-20T06:01:36.483Z,8.60
2023-02-20T06:02:09.013Z,8.05
2023-02-20T06:02:41.333Z,8.32
2023-02-20T06:03:17.117Z,8.77
2023-02-20T06:03:49.698Z,7.75
2023-02-20T06:04:22.213Z,7.18
2023-02-20T06:04:55.564Z,10.60
2023-02-20T06:05:28.652Z,9.85
2023-02-20T06:06:01.062Z,9.10
2023-02-20T06:06:37.364Z,10.03
2023-02-20T06:07:12.506Z,7.82
2023-02-20T06:07:45.700Z,11.20
2023-02-20T06:08:18.032Z,9.00
2023-02-20T06:08:50.732Z,11.38
2023-02-20T06:09:23.152Z,8.43
2023-02-20T06:09:58.038Z,8.68
2023-02-20T06:10:30.610Z,12.20
2023-02-20T06:11:03.101Z,12.48
2023-02-20T06:11:35.631Z,9.82
2023-02-20T06:12:08.037Z,11.47
2023-02-20T06:12:40.310Z,10.18
2023-02-20T06:13:13.327Z,10.25
2023-02-20T06:13:46.033Z,11.68
2023-02-20T06:14:19.285Z,10.18
2023-02-20T06:14:51.677Z,12.23
2023-02-20T06:15:24.252Z,11.18
2023-02-20T06:15:56.603Z,13.48
2023-02-20T06:16:29.780Z,14.57
2023-02-20T06:17:02.140Z,13.05
2023-02-20T06:17:34.824Z,12.13
2023-02-20T06:18:07.376Z,10.73
2023-02-20T06:18:40.546Z,12.05
2023-02-20T06:19:17.878Z,12.10
2023-02-20T06:19:50.753Z,12.25
2023-02-20T06:20:23.230Z,11.75
2023-02-20T06:20:55.625Z,10.90
2023-02-20T06:21:28.240Z,13.68
2023-02-20T06:22:01.826Z,11.95
2023-02-20T06:22:34.187Z,10.98
2023-02-20T06:23:06.614Z,13.37
2023-02-20T06:23:38.994Z,12.65
2023-02-20T06:24:11.315Z,12.05
2023-02-20T06:24:47.530Z,11.05
2023-02-20T06:25:19.990Z,11.27
2023-02-20T06:25:52.287Z,12.30
2023-02-20T06:26:25.430Z,13.32
2023-02-20T06:26:58.076Z,16.67
2023-02-20T06:27:30.609Z,14.25
2023-02-20T06:28:03.344Z,13.38
2023-02-20T06:28:35.647Z,9.40
2023-02-20T06:29:08.107Z,12.05
2023-02-20T06:29:40.383Z,11.35
2023-02-20T06:30:12.982Z,10.07
2023-02-20T06:30:45.445Z,8.98
2023-02-20T06:31:24.904Z,6.95
2023-02-20T06:32:00.619Z,7.43
2023-02-20T06:32:33.438Z,8.15
2023-02-20T06:33:05.787Z,8.63
2023-02-20T06:33:38.637Z,8.35
2023-02-20T06:34:11.412Z,8.57
2023-02-20T06:34:47.112Z,7.90
2023-02-20T06:35:19.513Z,7.70
2023-02-20T06:35:52.221Z,7.43
2023-02-20T06:36:32.499Z,6.85
2023-02-20T06:37:05.338Z,7.40
2023-02-20T06:37:37.835Z,7.25
2023-02-20T06:38:10.448Z,8.20
2023-02-20T06:38:42.753Z,7.65
2023-02-20T06:39:15.057Z,7.15
2023-02-20T06:39:49.547Z,6.83
2023-02-20T06:40:22.079Z,7.97
2023-02-20T06:40:54.436Z,8.18
2023-02-20T06:41:26.913Z,6.10
2023-02-20T06:41:59.188Z,7.47
2023-02-20T06:42:31.473Z,7.22
2023-02-20T06:43:04.074Z,7.43
2023-02-20T06:43:36.777Z,5.53
2023-02-20T06:44:09.190Z,8.00
2023-02-20T06:44:41.717Z,9.55
2023-02-20T06:45:15.493Z,8.83
2023-02-20T06:45:47.970Z,9.27
2023-02-20T06:46:20.396Z,8.32
2023-02-20T06:46:52.796Z,8.65
2023-02-20T06:47:25.143Z,9.88
2023-02-20T06:47:57.442Z,8.55
2023-02-20T06:48:29.742Z,8.48
2023-02-20T06:49:02.132Z,8.45
2023-02-20T06:49:35.097Z,9.20
2023-02-20T06:50:08.348Z,9.63
2023-02-20T06:50:43.581Z,10.60
2023-02-20T06:51:22.253Z,8.38
2023-02-20T06:51:54.958Z,8.50
2023-02-20T06:52:27.239Z,10.30
2023-02-20T06:52:59.632Z,10.60
2023-02-20T06:53:31.893Z,7.72
2023-02-20T06:54:04.323Z,7.88
2023-02-20T06:54:37.342Z,10.15
2023-02-20T06:55:10.390Z,11.45
2023-02-20T06:55:42.923Z,9.70
2023-02-20T06:56:18.736Z,10.03
2023-02-20T06:56:52.800Z,13.93
2023-02-20T06:57:25.227Z,12.05
2023-02-20T06:57:57.563Z,14.50
2023-02-20T06:58:29.853Z,15.18
2023-02-20T06:59:03.894Z,10.10
2023-02-20T06:59:41.679Z,10.13
2023-02-20T07:00:14.567Z,10.93
2023-02-20T07:00:47.085Z,9.82
2023-02-20T07:01:20.709Z,13.98
2023-02-20T07:01:53.201Z,10.93
2023-02-20T07:02:25.530Z,10.13
2023-02-20T07:02:57.985Z,13.20
2023-02-20T07:03:30.333Z,14.35
2023-02-20T07:04:03.056Z,13.38
2023-02-20T07:04:35.445Z,12.38
2023-02-20T07:05:09.275Z,12.48
2023-02-20T07:05:41.822Z,11.43
2023-02-20T07:06:14.360Z,13.23
2023-02-20T07:06:47.908Z,13.55
2023-02-20T07:07:20.247Z,34.77
2023-02-20T07:07:52.799Z,23.55
2023-02-20T07:08:25.228Z,10.70
2023-02-20T07:08:57.486Z,12.60
2023-02-20T07:09:29.762Z,10.88
2023-02-20T07:10:02.328Z,8.65
2023-02-20T07:10:34.679Z,8.48
2023-02-20T07:11:07.365Z,9.88
2023-02-20T07:11:40.044Z,7.30
2023-02-20T07:12:12.461Z,9.52
2023-02-20T07:12:44.735Z,11.27
2023-02-20T07:13:17.098Z,6.88
2023-02-20T07:13:49.728Z,9.00
2023-02-20T07:14:22.268Z,11.70
2023-02-20T07:14:54.746Z,9.70
2023-02-20T07:15:27.200Z,11.65
2023-02-20T07:15:59.645Z,13.45
2023-02-20T07:16:32.502Z,9.80
2023-02-20T07:17:04.848Z,11.90
2023-02-20T07:17:37.206Z,12.02
2023-02-20T07:18:09.688Z,12.27
2023-02-20T07:18:42.123Z,10.65
2023-02-20T07:19:14.528Z,12.55
2023-02-20T07:19:47.019Z,13.65
2023-02-20T07:20:19.829Z,15.32
2023-02-20T07:20:54.702Z,14.57
2023-02-20T07:21:27.416Z,13.27
2023-02-20T07:22:00.189Z,12.45
2023-02-20T07:22:32.909Z,11.88
2023-02-20T07:23:05.214Z,13.45
2023-02-20T07:23:37.692Z,13.13
2023-02-20T07:24:10.231Z,11.00
2023-02-20T07:24:42.528Z,14.18
2023-02-20T07:25:14.828Z,14.98
2023-02-20T07:25:48.244Z,9.95
2023-02-20T07:26:24.475Z,9.32
2023-02-20T07:27:27.908Z,6.53
2023-02-20T07:28:00.302Z,12.90
2023-02-20T07:28:35.305Z,12.70
2023-02-20T07:29:07.825Z,7.70
2023-02-20T07:29:41.606Z,8.55
2023-02-20T07:30:13.982Z,13.05
2023-02-20T07:30:49.126Z,8.77
2023-02-20T07:31:21.485Z,8.65
2023-02-20T07:31:53.817Z,7.00
2023-02-20T07:32:26.264Z,7.72
2023-02-20T07:32:58.752Z,8.90
2023-02-20T07:33:31.508Z,7.70
2023-02-20T07:34:03.851Z,8.90
2023-02-20T07:34:46.484Z,8.90
2023-02-20T07:35:27.277Z,9.57
2023-02-20T07:36:07.329Z,7.72
2023-02-20T07:36:41.183Z,8.82
2023-02-20T07:37:13.998Z,8.15
2023-02-20T07:37:46.401Z,8.68
2023-02-20T07:38:18.834Z,8.93
2023-02-20T07:38:55.051Z,9.00
2023-02-20T07:39:27.651Z,11.02
2023-02-20T07:39:59.917Z,14.20
2023-02-20T07:40:32.277Z,11.60
2023-02-20T07:41:04.956Z,9.02
2023-02-20T07:41:37.378Z,9.13